Time;durP1;ratioP1;P1;durP2;ratioP2;P2;SDS_P1;SDS_P2;PMS_P1;PMS_P2;Temp;Humidity;BMP_temperature;BMP_pressure;BME280_temperature;BME280_humidity;BME280_pressure;Samples;Min_cycle;Max_cycle;Signal;HPM_P1;HPM_P2
2020/12/31 00:00:41;;;;;;;23.55;5.10;;;;;;;8.63;53.58;93217.69;5082403;28;20016;-71
2020/12/31 00:03:07;;;;;;;19.63;5.43;;;;;;;8.62;53.75;93220.66;5082698;28;20031;-71
2020/12/31 00:05:32;;;;;;;26.13;6.50;;;;;;;8.64;54.11;93219.25;5080324;28;20020;-71
2020/12/31 00:07:57;;;;;;;16.13;4.35;;;;;;;8.68;53.95;93227.38;5080391;28;20030;-71
2020/12/31 00:10:23;;;;;;;22.20;6.15;;;;;;;8.78;53.95;93213.75;5083059;28;20483;-71
2020/12/31 00:12:49;;;;;;;17.88;3.40;;;;;;;8.85;54.05;93223.88;5081571;28;20028;-71
2020/12/31 00:15:14;;;;;;;19.30;3.60;;;;;;;8.90;53.23;93214.97;5082432;28;20036;-72
2020/12/31 00:17:39;;;;;;;14.40;3.30;;;;;;;8.96;52.95;93219.03;5081739;28;20035;-72
2020/12/31 00:20:07;;;;;;;15.77;5.18;;;;;;;8.96;52.39;93219.81;5086243;28;20016;-71
2020/12/31 00:22:32;;;;;;;22.20;4.82;;;;;;;8.87;52.40;93208.41;5083563;28;20108;-71
2020/12/31 00:24:58;;;;;;;19.40;4.63;;;;;;;8.74;52.52;93228.75;5080533;28;20024;-72
2020/12/31 00:27:23;;;;;;;16.83;4.10;;;;;;;8.72;52.99;93224.88;5080809;28;20027;-71
2020/12/31 00:29:49;;;;;;;16.88;4.28;;;;;;;8.67;52.99;93233.81;5079785;28;20028;-72
2020/12/31 00:32:14;;;;;;;14.07;3.72;;;;;;;8.55;53.48;93239.75;5075925;28;20033;-72
2020/12/31 00:34:40;;;;;;;21.50;4.03;;;;;;;8.35;54.24;93222.56;5079680;28;20124;-72
2020/12/31 00:37:06;;;;;;;19.83;4.20;;;;;;;8.24;54.44;93211.47;5079911;28;20035;-72
2020/12/31 00:39:31;;;;;;;12.98;4.32;;;;;;;8.22;54.37;93205.72;5081499;28;20024;-72
2020/12/31 00:41:57;;;;;;;17.65;4.82;;;;;;;8.23;54.61;93223.19;5085628;28;20024;-72
2020/12/31 00:44:22;;;;;;;20.25;3.90;;;;;;;8.21;54.78;93228.03;5081318;28;20035;-72
2020/12/31 00:46:48;;;;;;;23.17;5.10;;;;;;;8.16;55.08;93222.88;5082159;28;20040;-72
2020/12/31 00:49:13;;;;;;;21.08;3.58;;;;;;;8.18;55.28;93207.44;5081257;28;20021;-72
2020/12/31 00:51:39;;;;;;;17.92;4.40;;;;;;;8.22;55.04;93200.41;5078923;28;20031;-69
2020/12/31 00:54:04;;;;;;;25.08;4.78;;;;;;;8.18;55.03;93178.22;5084272;28;20060;-68
2020/12/31 00:56:30;;;;;;;14.52;3.53;;;;;;;8.28;54.79;93174.44;5079721;28;20024;-67
2020/12/31 00:58:55;;;;;;;17.13;3.28;;;;;;;8.38;54.46;93186.63;5083097;28;20032;-68
2020/12/31 01:01:21;;;;;;;13.63;3.78;;;;;;;8.42;54.39;93171.66;5078817;28;20034;-68
2020/12/31 01:03:46;;;;;;;13.02;3.03;;;;;;;8.34;54.67;93167.09;5079779;28;20078;-68
2020/12/31 01:06:12;;;;;;;17.75;3.50;;;;;;;8.40;54.51;93176.47;5080930;28;20107;-68
2020/12/31 01:08:37;;;;;;;16.80;3.42;;;;;;;8.46;54.28;93161.94;5083572;28;20039;-68
2020/12/31 01:11:04;;;;;;;19.70;3.03;;;;;;;8.53;54.24;93164.91;5082450;28;20021;-68
2020/12/31 01:13:29;;;;;;;12.05;2.47;;;;;;;8.59;54.01;93163.66;5082549;28;20023;-68
2020/12/31 01:15:55;;;;;;;19.58;2.20;;;;;;;8.64;53.82;93138.78;5079345;28;20078;-68
2020/12/31 01:18:20;;;;;;;14.02;2.53;;;;;;;8.69;53.97;93138.63;5079972;28;20462;-68
2020/12/31 01:20:45;;;;;;;16.05;2.33;;;;;;;8.75;53.12;93139.19;5081963;28;20111;-67
2020/12/31 01:23:11;;;;;;;19.08;2.60;;;;;;;8.75;53.04;93147.16;5083291;28;20063;-67
2020/12/31 01:25:36;;;;;;;19.73;3.05;;;;;;;8.82;52.93;93158.09;5082320;28;20103;-67
2020/12/31 01:28:02;;;;;;;16.80;3.35;;;;;;;8.89;52.74;93160.25;5083078;28;20452;-67
2020/12/31 01:30:29;;;;;;;13.93;2.35;;;;;;;8.93;52.58;93177.13;5078082;28;20024;-67
2020/12/31 01:32:54;;;;;;;16.42;3.45;;;;;;;8.88;52.58;93172.00;5077769;28;20444;-67
2020/12/31 01:35:20;;;;;;;20.60;3.67;;;;;;;8.77;52.87;93175.00;5082171;28;20029;-67
2020/12/31 01:37:45;;;;;;;27.48;3.90;;;;;;;8.73;53.13;93168.75;5078124;28;20020;-67
2020/12/31 01:40:11;;;;;;;20.42;3.75;;;;;;;8.59;53.57;93165.53;5086101;28;20020;-67
2020/12/31 01:42:41;;;;;;;17.63;4.13;;;;;;;8.55;54.06;93162.72;5083345;28;20028;-68
2020/12/31 01:45:06;;;;;;;21.33;4.20;;;;;;;8.51;54.14;93188.34;5078040;28;20445;-67
2020/12/31 01:47:32;;;;;;;15.63;3.33;;;;;;;8.42;54.17;93161.03;5082025;28;20032;-67
2020/12/31 01:49:57;;;;;;;18.80;3.72;;;;;;;8.42;54.41;93161.03;5083519;28;20029;-66
2020/12/31 01:52:24;;;;;;;19.83;3.63;;;;;;;8.42;54.37;93177.72;5072558;28;20074;-66
2020/12/31 01:54:50;;;;;;;18.35;3.80;;;;;;;8.40;54.51;93155.22;5072820;28;20032;-67
2020/12/31 01:57:15;;;;;;;24.42;4.15;;;;;;;8.38;54.61;93162.72;5070846;28;20028;-66
2020/12/31 01:59:41;;;;;;;18.92;4.22;;;;;;;8.34;54.60;93169.75;5081276;28;20036;-66
2020/12/31 02:02:07;;;;;;;13.77;3.67;;;;;;;8.27;54.93;93134.97;5086411;28;20029;-67
2020/12/31 02:04:35;;;;;;;10.57;3.03;;;;;;;8.23;54.94;93156.81;5083063;28;20012;-68
2020/12/31 02:07:01;;;;;;;19.52;4.07;;;;;;;8.29;54.76;93154.00;5083296;28;20023;-68
2020/12/31 02:09:27;;;;;;;11.80;4.32;;;;;;;8.22;54.47;93154.47;5077876;28;20023;-67
2020/12/31 02:11:52;;;;;;;17.75;3.60;;;;;;;8.15;54.86;93165.56;5082218;28;20079;-67
2020/12/31 02:14:18;;;;;;;18.33;4.05;;;;;;;8.10;55.32;93152.47;5080219;28;20028;-67
2020/12/31 02:16:43;;;;;;;12.07;3.42;;;;;;;8.06;55.17;93142.78;5084785;28;20063;-68
2020/12/31 02:19:16;;;;;;;14.18;3.60;;;;;;;8.03;55.32;93137.00;5082990;28;20057;-68
2020/12/31 02:21:52;;;;;;;23.92;4.07;;;;;;;7.95;55.62;93137.03;5084356;28;20059;-69
2020/12/31 02:24:21;;;;;;;18.17;3.47;;;;;;;7.87;55.95;93137.81;5082260;28;20451;-69
2020/12/31 02:26:48;;;;;;;15.45;4.30;;;;;;;7.87;56.03;93127.19;5078189;28;20040;-69
2020/12/31 02:29:15;;;;;;;13.93;3.50;;;;;;;7.84;56.17;93129.38;5077072;28;20105;-69
2020/12/31 02:31:43;;;;;;;20.98;3.85;;;;;;;7.84;55.96;93110.03;5083835;28;20477;-69
2020/12/31 02:34:09;;;;;;;15.98;3.70;;;;;;;7.83;55.76;93116.41;5082004;28;20491;-68
2020/12/31 02:36:36;;;;;;;21.85;3.90;;;;;;;7.82;56.03;93110.34;5077275;28;20032;-69
2020/12/31 02:39:11;;;;;;;21.25;3.88;;;;;;;7.81;55.80;93126.56;5086633;28;20052;-68
2020/12/31 02:41:37;;;;;;;17.40;2.67;;;;;;;7.75;55.61;93115.31;5082356;28;20033;-69
2020/12/31 02:44:04;;;;;;;18.15;2.78;;;;;;;7.67;56.30;93102.06;5083182;28;20031;-69
2020/12/31 02:46:29;;;;;;;14.45;4.05;;;;;;;7.57;56.60;93093.34;5081684;28;20024;-69
2020/12/31 02:48:55;;;;;;;14.18;5.18;;;;;;;7.60;56.87;93094.59;5078680;28;20037;-69
2020/12/31 02:51:21;;;;;;;20.17;3.15;;;;;;;7.60;56.84;93097.25;5081993;28;20042;-69
2020/12/31 02:53:47;;;;;;;12.82;3.15;;;;;;;7.59;56.91;93074.47;5076741;28;20052;-69
2020/12/31 02:56:15;;;;;;;14.85;3.25;;;;;;;7.60;56.89;93090.06;5074156;28;20078;-69
2020/12/31 02:58:41;;;;;;;16.35;3.33;;;;;;;7.43;57.64;93095.38;5081962;28;20032;-69
2020/12/31 03:01:07;;;;;;;14.82;3.13;;;;;;;7.44;57.71;93071.19;5079973;28;20025;-69
2020/12/31 03:03:34;;;;;;;26.00;3.97;;;;;;;7.47;57.67;93071.66;5079432;28;20115;-69
2020/12/31 03:06:03;;;;;;;16.52;4.15;;;;;;;7.48;57.45;93087.25;5081838;28;20491;-69
2020/12/31 03:08:28;;;;;;;21.00;3.80;;;;;;;7.41;57.33;93079.78;5076490;28;20403;-69
2020/12/31 03:10:54;;;;;;;16.10;3.05;;;;;;;7.43;57.26;93074.94;5071232;28;20028;-69
2020/12/31 03:13:23;;;;;;;23.42;3.85;;;;;;;7.33;57.81;93085.84;5074408;28;20085;-69
2020/12/31 03:15:50;;;;;;;17.95;3.40;;;;;;;7.32;57.79;93086.16;5072343;28;20024;-69
2020/12/31 03:18:15;;;;;;;15.55;2.97;;;;;;;7.32;57.82;93083.50;5083823;28;20048;-69
2020/12/31 03:20:43;;;;;;;12.57;3.70;;;;;;;7.34;57.66;93087.41;5080858;28;20051;-69
2020/12/31 03:23:13;;;;;;;13.68;3.33;;;;;;;7.38;57.81;93075.09;5083984;28;20502;-69
2020/12/31 03:25:39;;;;;;;15.73;3.17;;;;;;;7.43;57.64;93063.56;5085006;28;20024;-69
2020/12/31 03:28:05;;;;;;;28.35;6.07;;;;;;;7.43;57.43;93082.13;5079932;28;20073;-69
2020/12/31 03:30:32;;;;;;;23.42;3.97;;;;;;;7.23;57.98;93072.91;5076341;28;20103;-69
2020/12/31 03:32:58;;;;;;;17.35;4.80;;;;;;;7.21;58.49;93075.09;5080923;28;20033;-69
2020/12/31 03:35:24;;;;;;;26.85;5.43;;;;;;;7.16;58.80;93077.88;5085112;28;20476;-69
2020/12/31 03:37:49;;;;;;;24.23;4.95;;;;;;;7.20;58.58;93079.59;5087440;28;20031;-69
2020/12/31 03:40:15;;;;;;;20.00;4.47;;;;;;;7.19;58.50;93080.69;5077281;28;20032;-69
2020/12/31 03:42:40;;;;;;;19.35;4.93;;;;;;;7.20;58.46;93066.34;5073622;28;20033;-69
2020/12/31 03:45:06;;;;;;;16.73;4.70;;;;;;;7.19;58.28;93069.31;5084067;28;20016;-69
2020/12/31 03:47:31;;;;;;;12.55;3.95;;;;;;;7.16;58.38;93067.28;5079349;28;20025;-69
2020/12/31 03:49:57;;;;;;;11.75;3.25;;;;;;;7.16;58.39;93070.69;5073403;28;20025;-69
2020/12/31 03:52:22;;;;;;;20.25;4.20;;;;;;;7.17;58.33;93059.03;5081928;28;20044;-69
2020/12/31 03:54:48;;;;;;;15.38;4.28;;;;;;;7.20;58.03;93054.97;5087892;28;20051;-69
2020/12/31 03:57:13;;;;;;;24.90;4.70;;;;;;;7.27;57.61;93057.16;5079415;28;20109;-69
2020/12/31 03:59:39;;;;;;;13.52;3.80;;;;;;;7.27;57.44;93062.47;5082890;28;20030;-69
2020/12/31 04:02:04;;;;;;;20.38;5.07;;;;;;;7.33;57.36;93056.69;5076884;28;20031;-70
2020/12/31 04:04:29;;;;;;;14.38;3.80;;;;;;;7.35;57.36;93048.44;5087480;28;20793;-70
2020/12/31 04:06:55;;;;;;;20.17;3.55;;;;;;;7.28;57.24;93058.72;5079940;28;20111;-68
2020/12/31 04:09:20;;;;;;;16.00;3.45;;;;;;;7.17;57.59;93043.13;5077573;28;20432;-68
2020/12/31 04:11:46;;;;;;;10.02;2.45;;;;;;;6.93;58.41;93051.50;5080472;28;20384;-68
2020/12/31 04:14:11;;;;;;;14.25;3.47;;;;;;;6.84;58.92;93056.03;5081266;28;20413;-68
2020/12/31 04:16:37;;;;;;;18.02;2.95;;;;;;;6.69;59.69;93054.56;5076348;28;20118;-68
2020/12/31 04:19:02;;;;;;;17.92;4.55;;;;;;;6.73;59.68;93042.28;5084135;28;20452;-68
2020/12/31 04:21:28;;;;;;;16.00;3.30;;;;;;;6.71;60.04;93041.03;5077113;28;20444;-68
2020/12/31 04:23:53;;;;;;;17.52;3.15;;;;;;;6.58;60.27;93054.09;5081359;28;20020;-69
2020/12/31 04:26:18;;;;;;;13.77;2.42;;;;;;;6.60;60.35;93057.19;5084693;28;20025;-69
2020/12/31 04:28:44;;;;;;;9.40;2.80;;;;;;;6.71;60.40;93038.38;5085454;28;20028;-70
2020/12/31 04:31:09;;;;;;;13.98;3.58;;;;;;;6.83;60.24;93036.69;5081736;28;20487;-69
2020/12/31 04:33:35;;;;;;;14.65;2.92;;;;;;;7.00;59.93;93037.78;5081873;28;20023;-69
2020/12/31 04:36:00;;;;;;;10.45;3.17;;;;;;;7.11;59.51;93023.16;5082785;28;20036;-69
2020/12/31 04:38:26;;;;;;;14.38;2.83;;;;;;;7.26;58.46;93039.69;5080892;28;20029;-69
2020/12/31 04:40:51;;;;;;;23.02;4.28;;;;;;;7.40;58.56;93035.78;5079163;28;20020;-69
2020/12/31 04:43:17;;;;;;;20.65;3.95;;;;;;;7.55;57.79;93029.25;5080788;28;20043;-69
2020/12/31 04:45:43;;;;;;;11.13;3.05;;;;;;;7.68;58.05;93042.66;5079799;28;20043;-69
2020/12/31 04:48:11;;;;;;;23.20;3.50;;;;;;;7.81;57.54;93042.44;5084095;28;20052;-69
2020/12/31 04:50:42;;;;;;;20.05;4.28;;;;;;;7.86;56.98;93028.25;5085945;28;20031;-69
2020/12/31 04:53:09;;;;;;;19.75;4.50;;;;;;;7.93;56.86;93027.75;5083092;28;20047;-69
2020/12/31 04:55:45;;;;;;;19.13;4.10;;;;;;;7.98;56.80;93031.03;5080172;28;20480;-69
2020/12/31 04:58:13;;;;;;;23.05;4.03;;;;;;;8.06;56.55;93024.16;5079086;28;20024;-69
2020/12/31 05:00:39;;;;;;;19.42;3.83;;;;;;;8.07;55.84;93023.03;5076446;28;20020;-69
2020/12/31 05:03:05;;;;;;;15.00;3.58;;;;;;;8.08;55.96;93024.59;5087691;28;20032;-70
2020/12/31 05:05:33;;;;;;;24.80;5.07;;;;;;;8.11;55.79;93025.84;5079689;28;20016;-70
2020/12/31 05:08:00;;;;;;;17.77;3.42;;;;;;;8.18;56.00;93026.13;5086694;28;20020;-70
2020/12/31 05:10:26;;;;;;;24.15;5.55;;;;;;;8.23;55.93;93034.69;5083100;28;20024;-70
2020/12/31 05:13:01;;;;;;;37.95;8.10;;;;;;;8.26;55.82;93043.13;5079387;28;20446;-70
2020/12/31 05:15:42;;;;;;;15.93;3.22;;;;;;;8.01;55.99;93035.69;5080530;28;20027;-70
2020/12/31 05:18:21;;;;;;;34.15;5.10;;;;;;;7.87;56.56;93031.69;5080480;28;20024;-69
2020/12/31 05:20:51;;;;;;;18.05;3.45;;;;;;;7.71;57.30;93037.47;5085953;28;20033;-69
2020/12/31 05:23:19;;;;;;;15.85;3.63;;;;;;;7.51;57.84;93051.38;5079792;28;20123;-68
2020/12/31 05:25:45;;;;;;;14.70;3.17;;;;;;;7.41;58.32;93060.44;5080958;28;20081;-69
2020/12/31 05:28:22;;;;;;;16.17;3.55;;;;;;;7.16;59.50;93059.31;5084016;28;20028;-69
2020/12/31 05:30:54;;;;;;;14.80;3.25;;;;;;;7.21;59.25;93048.59;5106097;28;20028;-69
2020/12/31 05:33:30;;;;;;;13.60;2.80;;;;;;;7.19;59.38;93064.78;5076979;28;20476;-68
2020/12/31 05:36:21;;;;;;;16.40;3.40;;;;;;;7.24;59.39;93050.59;5077759;28;20046;-69
2020/12/31 05:38:47;;;;;;;19.75;4.68;;;;;;;7.27;59.33;93051.88;5105981;28;20024;-69
2020/12/31 05:41:13;;;;;;;21.42;3.58;;;;;;;7.22;59.82;93061.53;5083256;28;20020;-69
2020/12/31 05:43:40;;;;;;;12.52;2.80;;;;;;;7.26;60.09;93055.59;5076843;28;20040;-70
2020/12/31 05:46:11;;;;;;;15.45;3.90;;;;;;;7.30;59.91;93057.31;5075574;28;20039;-70
2020/12/31 05:48:37;;;;;;;19.48;4.65;;;;;;;7.34;59.94;93052.94;5086370;28;20094;-69
2020/12/31 05:51:31;;;;;;;18.63;3.60;;;;;;;7.45;59.91;93061.38;5081965;28;20059;-69
2020/12/31 05:54:08;;;;;;;18.92;3.72;;;;;;;7.53;59.64;93055.28;5079540;28;20504;-69
2020/12/31 05:56:35;;;;;;;14.90;4.30;;;;;;;7.65;59.78;93057.28;5087094;28;20028;-69
2020/12/31 05:59:20;;;;;;;16.92;4.38;;;;;;;7.70;59.64;93061.69;5080241;28;20039;-70
2020/12/31 06:02:03;;;;;;;26.88;10.02;;;;;;;7.78;59.93;93066.19;5082183;28;20085;-70
2020/12/31 06:04:28;;;;;;;27.92;6.30;;;;;;;7.81;60.08;93055.72;5079887;28;20035;-68
2020/12/31 06:06:58;;;;;;;14.05;4.38;;;;;;;7.79;60.08;93062.44;5079186;28;20033;-66
2020/12/31 06:09:32;;;;;;;19.33;3.95;;;;;;;7.71;60.35;93066.66;5080191;28;20020;-65
2020/12/31 06:12:08;;;;;;;13.63;3.67;;;;;;;7.51;60.31;93067.28;5077461;28;20024;-65
2020/12/31 06:14:36;;;;;;;22.58;3.65;;;;;;;7.30;61.03;93073.22;5080636;28;20024;-66
2020/12/31 06:17:03;;;;;;;20.27;3.95;;;;;;;7.34;60.92;93058.25;5080859;28;20483;-65
2020/12/31 06:19:38;;;;;;;9.63;2.78;;;;;;;7.34;61.09;93050.28;5081840;28;20051;-65
2020/12/31 06:22:06;;;;;;;13.52;3.72;;;;;;;7.43;60.98;93067.00;5081749;28;20016;-65
2020/12/31 06:24:42;;;;;;;16.60;3.95;;;;;;;7.53;60.73;93054.50;5080710;28;20020;-66
2020/12/31 06:27:13;;;;;;;17.48;4.13;;;;;;;7.61;60.47;93059.00;5081925;28;20012;-65
2020/12/31 06:29:50;;;;;;;16.35;4.80;;;;;;;7.71;60.44;93066.66;5084668;28;20118;-65
2020/12/31 06:32:21;;;;;;;13.65;3.83;;;;;;;7.80;60.12;93069.31;5081384;28;20040;-67
2020/12/31 06:34:47;;;;;;;25.02;4.70;;;;;;;7.68;60.57;93058.56;5078988;28;20028;-66
2020/12/31 06:37:13;;;;;;;33.97;6.25;;;;;;;7.80;60.25;93079.91;5080712;28;20032;-66
2020/12/31 06:39:40;;;;;;;15.95;4.70;;;;;;;7.91;59.50;93073.19;5079242;28;20085;-67
2020/12/31 06:42:06;;;;;;;22.08;5.47;;;;;;;7.98;59.57;93057.56;5081854;28;20051;-67
2020/12/31 06:44:32;;;;;;;18.75;5.88;;;;;;;8.08;59.26;93074.25;5080794;28;20403;-67
2020/12/31 06:46:58;;;;;;;12.65;4.78;;;;;;;8.14;59.55;93086.25;5082080;28;20093;-66
2020/12/31 06:49:51;;;;;;;24.67;5.32;;;;;;;8.11;59.56;93085.00;5076814;28;20476;-67
2020/12/31 06:52:21;;;;;;;15.48;4.18;;;;;;;8.18;58.61;93089.81;5081926;28;20056;-66
2020/12/31 06:54:48;;;;;;;20.45;4.53;;;;;;;8.24;58.22;93099.97;5084029;28;20027;-66
2020/12/31 06:57:37;;;;;;;15.00;4.53;;;;;;;8.31;58.15;93098.72;5077791;28;20395;-66
2020/12/31 07:00:04;;;;;;;26.63;5.82;;;;;;;8.30;58.93;93113.06;5080129;28;20039;-66
2020/12/31 07:02:43;;;;;;;27.40;3.90;;;;;;;8.20;60.08;93114.97;5082872;28;20055;-67
2020/12/31 07:05:18;;;;;;;12.55;4.63;;;;;;;8.10;60.68;93133.09;5082176;28;20027;-66
2020/12/31 07:07:45;;;;;;;31.67;4.45;;;;;;;8.01;60.41;93136.53;5075679;28;20032;-67
2020/12/31 07:10:10;;;;;;;17.95;5.40;;;;;;;8.08;60.99;93132.63;5082652;28;20107;-66
2020/12/31 07:12:45;;;;;;;15.95;4.65;;;;;;;8.06;61.79;93134.81;5075532;28;20028;-67
2020/12/31 07:15:12;;;;;;;19.60;4.50;;;;;;;8.02;61.81;93132.03;5079074;28;20613;-66
2020/12/31 07:17:43;;;;;;;31.10;6.00;;;;;;;8.07;61.90;93129.19;5083454;28;20058;-67
2020/12/31 07:20:18;;;;;;;23.95;5.57;;;;;;;8.12;63.12;93123.75;5084351;28;20029;-66
2020/12/31 07:22:46;;;;;;;21.23;4.60;;;;;;;8.17;63.50;93136.84;5077494;28;20032;-66
2020/12/31 07:25:13;;;;;;;16.65;4.03;;;;;;;8.21;62.90;93145.72;5080666;28;20414;-67
2020/12/31 07:27:40;;;;;;;16.27;3.65;;;;;;;8.24;61.79;93121.22;5083349;28;20089;-67
2020/12/31 07:30:08;;;;;;;9.95;2.92;;;;;;;8.34;61.92;93132.59;5078113;28;20032;-67
2020/12/31 07:32:46;;;;;;;15.80;4.18;;;;;;;8.44;65.34;93133.03;5076136;28;20116;-66
2020/12/31 07:35:37;;;;;;;19.27;4.65;;;;;;;8.35;65.86;93136.81;5081471;28;20021;-65
2020/12/31 07:38:05;;;;;;;19.15;5.38;;;;;;;8.16;67.30;93140.59;5078529;28;20023;-65
2020/12/31 07:40:39;;;;;;;22.90;5.03;;;;;;;8.17;66.58;93136.06;5079038;28;20032;-66
2020/12/31 07:43:08;;;;;;;16.05;4.50;;;;;;;8.16;66.36;93148.56;5102495;28;20081;-65
2020/12/31 07:45:37;;;;;;;18.33;4.90;;;;;;;8.17;69.00;93154.66;5079143;28;20047;-66
2020/12/31 07:48:04;;;;;;;26.45;7.05;;;;;;;8.26;68.46;93151.97;5079922;28;20080;-66
2020/12/31 07:50:30;;;;;;;21.35;6.90;;;;;;;8.33;67.72;93146.97;5079198;28;20391;-66
2020/12/31 07:52:58;;;;;;;26.35;6.75;;;;;;;8.43;67.55;93144.00;5078859;28;20135;-67
2020/12/31 07:55:23;;;;;;;22.33;7.35;;;;;;;8.54;67.46;93144.44;5078688;28;20024;-68
2020/12/31 07:57:49;;;;;;;26.08;7.75;;;;;;;8.63;67.31;93145.22;5079238;28;20025;-66
2020/12/31 08:00:19;;;;;;;31.33;10.10;;;;;;;8.71;66.71;93154.22;5081816;28;20095;-66
2020/12/31 08:02:51;;;;;;;28.45;8.93;;;;;;;8.79;65.86;93140.13;5085554;28;20063;-66
2020/12/31 08:05:21;;;;;;;34.03;9.63;;;;;;;8.89;65.94;93142.44;5086050;28;20027;-66
2020/12/31 08:07:57;;;;;;;31.52;10.65;;;;;;;8.97;67.24;93149.56;5082909;28;20263;-66
2020/12/31 08:10:24;;;;;;;29.23;8.55;;;;;;;9.06;66.73;93148.75;5085545;28;20119;-66
2020/12/31 08:13:19;;;;;;;31.30;9.15;;;;;;;9.14;67.00;93142.63;5084610;28;20023;-66
2020/12/31 08:15:54;;;;;;;30.70;9.57;;;;;;;9.23;66.50;93154.00;5075676;28;20153;-67
2020/12/31 08:18:22;;;;;;;24.40;9.52;;;;;;;9.32;66.55;93172.56;5081795;28;20456;-66
2020/12/31 08:20:50;;;;;;;20.65;8.25;;;;;;;9.44;66.58;93170.00;5087795;28;20115;-71
2020/12/31 08:23:25;;;;;;;21.90;7.75;;;;;;;9.56;66.15;93162.09;5077435;28;20028;-67
2020/12/31 08:25:54;;;;;;;20.80;7.03;;;;;;;9.62;66.17;93165.34;5087367;28;20024;-67
2020/12/31 08:28:21;;;;;;;24.00;5.90;;;;;;;9.71;66.65;93173.25;5078501;28;20031;-62
2020/12/31 08:30:47;;;;;;;21.73;5.63;;;;;;;9.62;65.46;93160.03;5084262;28;20159;-61
2020/12/31 08:33:13;;;;;;;19.48;4.80;;;;;;;9.31;65.48;93155.84;5079554;28;20115;-62
2020/12/31 08:35:39;;;;;;;15.68;5.35;;;;;;;9.18;66.09;93147.00;5076556;28;20036;-64
2020/12/31 08:38:11;;;;;;;12.85;4.03;;;;;;;9.12;65.28;93147.47;5083777;28;20515;-64
2020/12/31 08:40:56;;;;;;;15.63;3.60;;;;;;;9.03;65.07;93147.53;5082838;28;20064;-64
2020/12/31 08:43:40;;;;;;;17.38;3.17;;;;;;;9.00;65.91;93146.28;5085688;28;20406;-64
2020/12/31 08:46:08;;;;;;;10.27;4.10;;;;;;;8.96;65.94;93156.00;5078733;28;20173;-63
2020/12/31 08:48:35;;;;;;;15.30;3.70;;;;;;;9.01;64.46;93157.69;5082154;28;20033;-63
2020/12/31 08:51:12;;;;;;;30.25;4.93;;;;;;;9.06;67.09;93156.75;5079311;28;20029;-64
2020/12/31 08:53:54;;;;;;;18.77;4.70;;;;;;;8.98;67.11;93153.81;5084437;28;20056;-63
2020/12/31 08:56:21;;;;;;;17.05;5.00;;;;;;;9.00;67.81;93154.28;5078493;28;20052;-64
2020/12/31 08:58:47;;;;;;;24.42;5.85;;;;;;;9.07;68.38;93163.63;5084038;28;20032;-64
2020/12/31 09:01:26;;;;;;;16.92;5.75;;;;;;;9.18;67.90;93152.31;5083479;28;20031;-64
2020/12/31 09:04:07;;;;;;;17.13;5.57;;;;;;;9.09;66.59;93148.91;5080990;28;20024;-64
2020/12/31 09:06:32;;;;;;;19.67;6.47;;;;;;;9.06;66.82;93154.06;5105825;28;20107;-64
2020/12/31 09:08:58;;;;;;;24.60;5.55;;;;;;;8.97;68.07;93151.47;5084281;28;20079;-64
2020/12/31 09:11:25;;;;;;;14.73;5.00;;;;;;;8.99;68.31;93141.28;5079905;28;20021;-64
2020/12/31 09:13:51;;;;;;;17.30;5.65;;;;;;;9.11;69.08;93132.63;5082386;28;20050;-64
2020/12/31 09:16:17;;;;;;;23.80;4.70;;;;;;;9.29;68.46;93142.09;5077958;28;20024;-63
2020/12/31 09:18:43;;;;;;;18.40;5.30;;;;;;;9.48;67.30;93143.53;5073496;28;20456;-63
2020/12/31 09:21:10;;;;;;;22.77;5.85;;;;;;;9.67;67.61;93154.53;5079877;28;20548;-63
2020/12/31 09:23:36;;;;;;;14.80;6.25;;;;;;;9.79;67.37;93133.31;5082601;28;20394;-63
2020/12/31 09:26:02;;;;;;;14.60;6.35;;;;;;;9.94;66.56;93149.78;5078450;28;20013;-64
2020/12/31 09:28:28;;;;;;;17.42;5.85;;;;;;;10.09;65.21;93135.84;5079602;28;20103;-65
2020/12/31 09:30:55;;;;;;;14.50;5.47;;;;;;;10.18;65.06;93139.22;5076777;28;20162;-64
2020/12/31 09:33:23;;;;;;;15.32;5.47;;;;;;;10.30;65.07;93127.06;5082628;28;20563;-64
2020/12/31 09:35:48;;;;;;;23.65;5.55;;;;;;;10.42;65.19;93132.44;5080764;28;20487;-64
2020/12/31 09:38:18;;;;;;;23.90;7.65;;;;;;;10.55;65.19;93110.06;5087016;28;20052;-63
2020/12/31 09:40:44;;;;;;;18.98;5.80;;;;;;;10.67;64.76;93103.19;5081665;28;20020;-64
2020/12/31 09:43:10;;;;;;;16.52;5.97;;;;;;;10.75;64.89;93097.00;5074895;28;20031;-64
2020/12/31 09:45:38;;;;;;;19.60;5.95;;;;;;;10.88;64.83;93101.19;5084628;28;20021;-64
2020/12/31 09:48:03;;;;;;;18.20;5.50;;;;;;;11.02;64.22;93080.31;5079525;28;20435;-65
2020/12/31 09:50:29;;;;;;;13.65;5.15;;;;;;;11.12;64.04;93089.00;5086980;28;20042;-65
2020/12/31 09:52:55;;;;;;;11.23;3.95;;;;;;;11.14;62.32;93084.09;5077582;28;20572;-64
2020/12/31 09:55:21;;;;;;;16.35;5.15;;;;;;;11.19;63.29;93067.84;5085742;28;20106;-64
2020/12/31 09:57:47;;;;;;;15.20;5.78;;;;;;;11.26;63.52;93065.41;5084802;28;20376;-64
2020/12/31 10:00:12;;;;;;;12.55;4.65;;;;;;;11.34;63.41;93058.41;5079043;28;20102;-64
2020/12/31 10:02:38;;;;;;;18.10;5.25;;;;;;;11.47;63.37;93075.16;5080763;28;20099;-64
2020/12/31 10:05:04;;;;;;;18.65;5.72;;;;;;;11.52;62.69;93056.22;5085114;28;20113;-63
2020/12/31 10:07:30;;;;;;;12.57;4.90;;;;;;;11.55;61.48;93026.19;5083382;28;20038;-67
2020/12/31 10:09:56;;;;;;;18.77;5.30;;;;;;;11.42;61.89;93042.25;5089032;28;20031;-65
2020/12/31 10:12:21;;;;;;;15.52;5.15;;;;;;;11.31;62.76;93040.38;5087800;28;20034;-64
2020/12/31 10:14:48;;;;;;;24.77;6.05;;;;;;;11.30;62.46;93030.84;5077824;28;20032;-65
2020/12/31 10:17:13;;;;;;;19.25;8.07;;;;;;;11.28;63.20;93054.41;5079537;28;20033;-65
2020/12/31 10:19:39;;;;;;;25.17;8.55;;;;;;;11.37;62.54;93053.16;5077135;28;20466;-65
2020/12/31 10:22:05;;;;;;;21.13;6.78;;;;;;;11.21;63.20;93045.09;5075052;28;20080;-65
2020/12/31 10:24:31;;;;;;;20.35;9.82;;;;;;;11.23;63.89;93042.06;5081777;28;20028;-66
2020/12/31 10:26:56;;;;;;;21.67;6.90;;;;;;;11.16;64.42;93039.19;5078673;28;20067;-65
2020/12/31 10:29:22;;;;;;;20.73;6.50;;;;;;;11.08;64.13;93040.88;5074628;28;20515;-65
2020/12/31 10:31:52;;;;;;;17.80;6.38;;;;;;;11.08;65.00;93051.53;5082476;28;20025;-66
2020/12/31 10:34:17;;;;;;;19.58;5.80;;;;;;;10.88;64.05;93039.88;5078507;28;20399;-66
2020/12/31 10:36:49;;;;;;;13.80;5.47;;;;;;;10.73;65.57;93037.91;5078830;28;20024;-65
2020/12/31 10:39:15;;;;;;;17.58;5.72;;;;;;;10.76;64.60;93032.66;5077885;28;20030;-66
2020/12/31 10:41:40;;;;;;;12.55;5.95;;;;;;;10.69;65.95;93043.13;5081055;28;20427;-65
2020/12/31 10:44:06;;;;;;;7.97;2.42;;;;;;;10.55;56.59;93042.66;5076331;28;20036;-65
2020/12/31 10:46:31;;;;;;;8.45;1.80;;;;;;;10.61;53.81;93022.69;5070183;28;20020;-68
2020/12/31 10:48:56;;;;;;;6.68;1.95;;;;;;;10.74;56.22;93018.13;5069971;28;20069;-67
2020/12/31 10:51:22;;;;;;;10.60;2.55;;;;;;;10.87;57.32;93010.88;5082439;28;20085;-67
2020/12/31 10:53:47;;;;;;;7.78;2.25;;;;;;;10.94;52.58;93009.22;5088768;28;20184;-66
2020/12/31 10:56:18;;;;;;;6.25;1.45;;;;;;;10.98;49.59;92982.66;5068386;28;20055;-67
2020/12/31 10:58:44;;;;;;;8.52;1.88;;;;;;;10.85;50.70;92989.91;5087373;28;20089;-67
2020/12/31 11:01:15;;;;;;;13.85;2.95;;;;;;;11.02;53.70;93010.22;5088515;28;20020;-68
2020/12/31 11:03:44;;;;;;;9.40;3.07;;;;;;;11.16;52.52;92994.63;5090007;28;20031;-66
2020/12/31 11:06:17;;;;;;;7.93;1.98;;;;;;;11.24;49.03;92993.72;5079355;28;20028;-67
2020/12/31 11:08:42;;;;;;;11.35;3.78;;;;;;;11.35;53.38;92983.34;5104477;28;20020;-67
2020/12/31 11:11:07;;;;;;;23.35;7.65;;;;;;;11.43;56.41;93001.09;5089363;28;20028;-67
2020/12/31 11:13:33;;;;;;;10.52;4.30;;;;;;;11.57;56.91;92987.38;5075413;28;20471;-68
2020/12/31 11:15:58;;;;;;;8.02;2.08;;;;;;;11.64;52.19;92979.56;5088126;28;20516;-67
2020/12/31 11:18:24;;;;;;;8.80;2.42;;;;;;;11.82;53.85;92980.06;5079183;28;20059;-65
2020/12/31 11:20:52;;;;;;;13.25;3.67;;;;;;;11.94;54.23;92983.78;5077691;28;20036;-66
2020/12/31 11:23:17;;;;;;;14.77;3.15;;;;;;;12.07;52.93;92990.63;5076073;28;20035;-66
2020/12/31 11:25:43;;;;;;;8.13;1.90;;;;;;;12.19;49.04;92990.56;5073801;28;20479;-66
2020/12/31 11:28:08;;;;;;;8.52;2.13;;;;;;;12.21;49.20;92988.31;5074098;28;20021;-66
2020/12/31 11:30:33;;;;;;;6.97;1.73;;;;;;;12.25;49.98;92983.03;5080391;28;20020;-66
2020/12/31 11:32:59;;;;;;;7.85;2.42;;;;;;;12.37;49.05;92971.50;5084131;28;20095;-66
2020/12/31 11:35:24;;;;;;;9.60;2.17;;;;;;;12.47;48.38;92956.84;5085892;28;20466;-66